sensor_id;sensor_type;location;lat;lon;timestamp;P1;durP1;ratioP1;P2;durP2;ratioP2
34737;SDS011;39910;47.154;27.614;2023-02-20T00:01:25;9.52;;;9.02;;
34737;SDS011;39910;47.154;27.614;2023-02-20T00:03:50;8.90;;;8.50;;
34737;SDS011;39910;47.154;27.614;2023-02-20T00:06:16;9.38;;;8.88;;
34737;SDS011;39910;47.154;27.614;2023-02-20T00:08:41;10.00;;;9.50;;
34737;SDS011;39910;47.154;27.614;2023-02-20T00:11:06;9.95;;;9.45;;
34737;SDS011;39910;47.154;27.614;2023-02-20T00:13:32;9.13;;;8.70;;
34737;SDS011;39910;47.154;27.614;2023-02-20T00:15:57;9.77;;;9.27;;
34737;SDS011;39910;47.154;27.614;2023-02-20T00:18:22;9.70;;;9.20;;
34737;SDS011;39910;47.154;27.614;2023-02-20T00:20:47;9.50;;;9.00;;
34737;SDS011;39910;47.154;27.614;2023-02-20T00:23:13;8.90;;;8.50;;
34737;SDS011;39910;47.154;27.614;2023-02-20T00:25:38;9.48;;;8.98;;
34737;SDS011;39910;47.154;27.614;2023-02-20T00:28:04;8.70;;;8.30;;
34737;SDS011;39910;47.154;27.614;2023-02-20T00:30:29;9.50;;;9.00;;
34737;SDS011;39910;47.154;27.614;2023-02-20T00:32:55;8.85;;;8.45;;
34737;SDS011;39910;47.154;27.614;2023-02-20T00:35:21;9.27;;;8.77;;
34737;SDS011;39910;47.154;27.614;2023-02-20T00:37:47;9.63;;;9.13;;
34737;SDS011;39910;47.154;27.614;2023-02-20T00:40:14;9.35;;;8.85;;
34737;SDS011;39910;47.154;27.614;2023-02-20T00:42:39;9.75;;;9.25;;
34737;SDS011;39910;47.154;27.614;2023-02-20T00:45:05;10.55;;;9.95;;
34737;SDS011;39910;47.154;27.614;2023-02-20T00:47:30;9.95;;;9.38;;
34737;SDS011;39910;47.154;27.614;2023-02-20T00:49:55;9.55;;;9.05;;
34737;SDS011;39910;47.154;27.614;2023-02-20T00:52:21;9.13;;;8.68;;
34737;SDS011;39910;47.154;27.614;2023-02-20T00:54:46;9.80;;;9.30;;
34737;SDS011;39910;47.154;27.614;2023-02-20T00:57:11;8.77;;;8.38;;
34737;SDS011;39910;47.154;27.614;2023-02-20T00:59:36;9.20;;;8.73;;
34737;SDS011;39910;47.154;27.614;2023-02-20T01:02:03;9.23;;;8.75;;
34737;SDS011;39910;47.154;27.614;2023-02-20T01:04:28;9.35;;;8.85;;
34737;SDS011;39910;47.154;27.614;2023-02-20T01:06:54;9.50;;;9.00;;
34737;SDS011;39910;47.154;27.614;2023-02-20T01:09:19;9.40;;;8.90;;
34737;SDS011;39910;47.154;27.614;2023-02-20T01:11:44;9.60;;;9.10;;
34737;SDS011;39910;47.154;27.614;2023-02-20T01:14:11;9.10;;;8.70;;
34737;SDS011;39910;47.154;27.614;2023-02-20T01:16:36;9.50;;;9.00;;
34737;SDS011;39910;47.154;27.614;2023-02-20T01:19:01;9.15;;;8.70;;
34737;SDS011;39910;47.154;27.614;2023-02-20T01:21:27;8.95;;;8.55;;
34737;SDS011;39910;47.154;27.614;2023-02-20T01:23:52;8.75;;;8.35;;
34737;SDS011;39910;47.154;27.614;2023-02-20T01:26:17;8.60;;;8.20;;
34737;SDS011;39910;47.154;27.614;2023-02-20T01:28:45;9.35;;;8.85;;
34737;SDS011;39910;47.154;27.614;2023-02-20T01:31:13;9.55;;;9.05;;
34737;SDS011;39910;47.154;27.614;2023-02-20T01:33:41;9.27;;;8.77;;
34737;SDS011;39910;47.154;27.614;2023-02-20T01:36:06;8.95;;;8.55;;
34737;SDS011;39910;47.154;27.614;2023-02-20T01:38:32;9.45;;;8.95;;
34737;SDS011;39910;47.154;27.614;2023-02-20T01:40:57;8.82;;;8.43;;
34737;SDS011;39910;47.154;27.614;2023-02-20T01:43:22;9.77;;;9.27;;
34737;SDS011;39910;47.154;27.614;2023-02-20T01:45:48;10.18;;;9.60;;
34737;SDS011;39910;47.154;27.614;2023-02-20T01:48:23;9.45;;;8.95;;
34737;SDS011;39910;47.154;27.614;2023-02-20T01:50:53;9.73;;;9.23;;
34737;SDS011;39910;47.154;27.614;2023-02-20T01:53:21;9.35;;;8.85;;
34737;SDS011;39910;47.154;27.614;2023-02-20T01:56:01;9.52;;;9.02;;
34737;SDS011;39910;47.154;27.614;2023-02-20T01:58:28;9.00;;;8.50;;
34737;SDS011;39910;47.154;27.614;2023-02-20T02:00:54;10.50;;;9.90;;
34737;SDS011;39910;47.154;27.614;2023-02-20T02:03:24;9.82;;;9.32;;
34737;SDS011;39910;47.154;27.614;2023-02-20T02:05:54;9.38;;;8.88;;
34737;SDS011;39910;47.154;27.614;2023-02-20T02:08:22;9.65;;;9.15;;
34737;SDS011;39910;47.154;27.614;2023-02-20T02:13:19;8.80;;;8.40;;
34737;SDS011;39910;47.154;27.614;2023-02-20T02:15:45;8.98;;;8.57;;
34737;SDS011;39910;47.154;27.614;2023-02-20T02:20:57;9.30;;;8.80;;
34737;SDS011;39910;47.154;27.614;2023-02-20T02:26:15;10.15;;;9.55;;
34737;SDS011;39910;47.154;27.614;2023-02-20T02:31:34;8.70;;;8.30;;
34737;SDS011;39910;47.154;27.614;2023-02-20T02:47:22;9.55;;;9.05;;
34737;SDS011;39910;47.154;27.614;2023-02-20T02:50:01;9.43;;;8.93;;
34737;SDS011;39910;47.154;27.614;2023-02-20T02:52:28;9.50;;;9.00;;
34737;SDS011;39910;47.154;27.614;2023-02-20T02:55:06;9.85;;;9.35;;
34737;SDS011;39910;47.154;27.614;2023-02-20T02:57:32;9.20;;;8.70;;
34737;SDS011;39910;47.154;27.614;2023-02-20T03:00:05;9.73;;;9.23;;
34737;SDS011;39910;47.154;27.614;2023-02-20T03:02:33;9.55;;;9.05;;
34737;SDS011;39910;47.154;27.614;2023-02-20T03:05:00;9.05;;;8.60;;
34737;SDS011;39910;47.154;27.614;2023-02-20T03:07:28;9.40;;;8.90;;
34737;SDS011;39910;47.154;27.614;2023-02-20T03:09:56;9.20;;;8.70;;
34737;SDS011;39910;47.154;27.614;2023-02-20T03:12:23;8.88;;;8.48;;
34737;SDS011;39910;47.154;27.614;2023-02-20T03:15:04;9.30;;;8.80;;
34737;SDS011;39910;47.154;27.614;2023-02-20T03:18:15;9.45;;;8.95;;
34737;SDS011;39910;47.154;27.614;2023-02-20T03:20:40;9.05;;;8.63;;
34737;SDS011;39910;47.154;27.614;2023-02-20T03:23:07;9.25;;;8.77;;
34737;SDS011;39910;47.154;27.614;2023-02-20T03:25:35;8.98;;;8.57;;
34737;SDS011;39910;47.154;27.614;2023-02-20T03:28:11;8.88;;;8.48;;
34737;SDS011;39910;47.154;27.614;2023-02-20T03:36:22;9.23;;;8.73;;
34737;SDS011;39910;47.154;27.614;2023-02-20T03:39:10;9.15;;;8.70;;
34737;SDS011;39910;47.154;27.614;2023-02-20T03:41:55;9.77;;;9.27;;
34737;SDS011;39910;47.154;27.614;2023-02-20T03:44:39;10.07;;;9.48;;
34737;SDS011;39910;47.154;27.614;2023-02-20T03:47:04;9.38;;;8.88;;
34737;SDS011;39910;47.154;27.614;2023-02-20T03:49:34;9.13;;;8.63;;
34737;SDS011;39910;47.154;27.614;2023-02-20T03:52:00;9.18;;;8.73;;
34737;SDS011;39910;47.154;27.614;2023-02-20T03:54:26;9.80;;;9.30;;
34737;SDS011;39910;47.154;27.614;2023-02-20T03:56:54;10.45;;;9.85;;
34737;SDS011;39910;47.154;27.614;2023-02-20T04:01:46;10.13;;;9.55;;
34737;SDS011;39910;47.154;27.614;2023-02-20T04:04:13;9.50;;;9.00;;
34737;SDS011;39910;47.154;27.614;2023-02-20T04:06:42;10.98;;;10.30;;
34737;SDS011;39910;47.154;27.614;2023-02-20T04:09:13;10.23;;;9.65;;
34737;SDS011;39910;47.154;27.614;2023-02-20T04:11:45;10.07;;;9.48;;
34737;SDS011;39910;47.154;27.614;2023-02-20T04:14:12;10.18;;;9.63;;
34737;SDS011;39910;47.154;27.614;2023-02-20T04:16:41;9.93;;;9.43;;
34737;SDS011;39910;47.154;27.614;2023-02-20T04:19:08;9.85;;;9.35;;
34737;SDS011;39910;47.154;27.614;2023-02-20T04:21:35;10.35;;;9.75;;
34737;SDS011;39910;47.154;27.614;2023-02-20T04:24:02;9.90;;;9.40;;
34737;SDS011;39910;47.154;27.614;2023-02-20T04:26:31;9.50;;;9.00;;
34737;SDS011;39910;47.154;27.614;2023-02-20T04:28:58;9.45;;;8.95;;
34737;SDS011;39910;47.154;27.614;2023-02-20T04:31:23;9.45;;;8.95;;
34737;SDS011;39910;47.154;27.614;2023-02-20T04:33:48;9.98;;;9.40;;
34737;SDS011;39910;47.154;27.614;2023-02-20T04:36:15;9.65;;;9.15;;
34737;SDS011;39910;47.154;27.614;2023-02-20T04:38:41;10.07;;;9.48;;
34737;SDS011;39910;47.154;27.614;2023-02-20T04:41:06;9.00;;;8.60;;
34737;SDS011;39910;47.154;27.614;2023-02-20T04:43:31;10.40;;;9.80;;
34737;SDS011;39910;47.154;27.614;2023-02-20T04:45:57;9.50;;;9.00;;
34737;SDS011;39910;47.154;27.614;2023-02-20T04:48:22;9.80;;;9.30;;
34737;SDS011;39910;47.154;27.614;2023-02-20T04:50:47;10.63;;;10.02;;
34737;SDS011;39910;47.154;27.614;2023-02-20T04:53:12;10.00;;;9.50;;
34737;SDS011;39910;47.154;27.614;2023-02-20T04:55:38;9.73;;;9.23;;
34737;SDS011;39910;47.154;27.614;2023-02-20T04:58:03;9.52;;;9.02;;
34737;SDS011;39910;47.154;27.614;2023-02-20T05:00:28;10.02;;;9.50;;
34737;SDS011;39910;47.154;27.614;2023-02-20T05:02:55;9.45;;;8.95;;
34737;SDS011;39910;47.154;27.614;2023-02-20T05:05:25;10.95;;;10.25;;
34737;SDS011;39910;47.154;27.614;2023-02-20T05:07:56;10.82;;;10.15;;
34737;SDS011;39910;47.154;27.614;2023-02-20T05:10:22;9.63;;;9.13;;
34737;SDS011;39910;47.154;27.614;2023-02-20T05:12:47;10.00;;;9.50;;
34737;SDS011;39910;47.154;27.614;2023-02-20T05:15:13;10.40;;;9.80;;
34737;SDS011;39910;47.154;27.614;2023-02-20T05:17:38;10.25;;;9.65;;
34737;SDS011;39910;47.154;27.614;2023-02-20T05:20:04;10.35;;;9.75;;
34737;SDS011;39910;47.154;27.614;2023-02-20T05:22:29;9.52;;;9.02;;
34737;SDS011;39910;47.154;27.614;2023-02-20T05:24:55;10.27;;;9.68;;
34737;SDS011;39910;47.154;27.614;2023-02-20T05:27:20;9.15;;;8.65;;
34737;SDS011;39910;47.154;27.614;2023-02-20T05:29:47;9.40;;;8.90;;
34737;SDS011;39910;47.154;27.614;2023-02-20T05:32:13;8.50;;;8.10;;
34737;SDS011;39910;47.154;27.614;2023-02-20T05:34:39;9.38;;;8.88;;
34737;SDS011;39910;47.154;27.614;2023-02-20T05:37:04;9.20;;;8.70;;
34737;SDS011;39910;47.154;27.614;2023-02-20T05:39:29;9.02;;;8.63;;
34737;SDS011;39910;47.154;27.614;2023-02-20T05:41:55;9.45;;;8.95;;
34737;SDS011;39910;47.154;27.614;2023-02-20T05:44:21;9.07;;;8.57;;
34737;SDS011;39910;47.154;27.614;2023-02-20T05:46:46;10.10;;;9.50;;
34737;SDS011;39910;47.154;27.614;2023-02-20T05:49:11;10.32;;;9.73;;
34737;SDS011;39910;47.154;27.614;2023-02-20T05:51:37;9.25;;;8.77;;
34737;SDS011;39910;47.154;27.614;2023-02-20T05:54:03;9.85;;;9.35;;
34737;SDS011;39910;47.154;27.614;2023-02-20T05:56:28;9.10;;;8.70;;
34737;SDS011;39910;47.154;27.614;2023-02-20T05:58:54;9.95;;;9.45;;
34737;SDS011;39910;47.154;27.614;2023-02-20T06:01:20;9.63;;;9.13;;
34737;SDS011;39910;47.154;27.614;2023-02-20T06:03:46;9.60;;;9.10;;
34737;SDS011;39910;47.154;27.614;2023-02-20T06:06:11;9.65;;;9.18;;
34737;SDS011;39910;47.154;27.614;2023-02-20T06:08:38;9.60;;;9.20;;
34737;SDS011;39910;47.154;27.614;2023-02-20T06:11:03;9.48;;;9.07;;
34737;SDS011;39910;47.154;27.614;2023-02-20T06:13:28;10.23;;;9.73;;
34737;SDS011;39910;47.154;27.614;2023-02-20T06:15:54;10.05;;;9.55;;
34737;SDS011;39910;47.154;27.614;2023-02-20T06:18:19;9.85;;;9.45;;
34737;SDS011;39910;47.154;27.614;2023-02-20T06:20:44;10.20;;;9.70;;
34737;SDS011;39910;47.154;27.614;2023-02-20T06:23:09;9.25;;;8.85;;
34737;SDS011;39910;47.154;27.614;2023-02-20T06:25:35;10.10;;;9.65;;
34737;SDS011;39910;47.154;27.614;2023-02-20T06:28:00;9.98;;;9.57;;
34737;SDS011;39910;47.154;27.614;2023-02-20T06:30:25;9.90;;;9.50;;
34737;SDS011;39910;47.154;27.614;2023-02-20T06:32:50;10.68;;;10.18;;
34737;SDS011;39910;47.154;27.614;2023-02-20T06:35:16;10.18;;;9.75;;
34737;SDS011;39910;47.154;27.614;2023-02-20T06:37:43;10.50;;;10.00;;
34737;SDS011;39910;47.154;27.614;2023-02-20T06:40:11;10.45;;;9.95;;
34737;SDS011;39910;47.154;27.614;2023-02-20T06:42:36;10.90;;;10.40;;
34737;SDS011;39910;47.154;27.614;2023-02-20T06:45:01;10.13;;;9.73;;
34737;SDS011;39910;47.154;27.614;2023-02-20T06:47:28;10.80;;;10.30;;
34737;SDS011;39910;47.154;27.614;2023-02-20T06:49:54;10.85;;;10.35;;
34737;SDS011;39910;47.154;27.614;2023-02-20T06:52:19;10.52;;;10.02;;
34737;SDS011;39910;47.154;27.614;2023-02-20T06:54:44;10.55;;;10.05;;
34737;SDS011;39910;47.154;27.614;2023-02-20T06:57:09;10.57;;;10.07;;
34737;SDS011;39910;47.154;27.614;2023-02-20T06:59:35;10.10;;;9.70;;
34737;SDS011;39910;47.154;27.614;2023-02-20T07:02:05;10.40;;;9.90;;
34737;SDS011;39910;47.154;27.614;2023-02-20T07:04:31;10.20;;;9.80;;
34737;SDS011;39910;47.154;27.614;2023-02-20T07:06:56;10.00;;;9.60;;
34737;SDS011;39910;47.154;27.614;2023-02-20T07:09:23;10.55;;;10.05;;
34737;SDS011;39910;47.154;27.614;2023-02-20T07:11:49;10.32;;;9.90;;
34737;SDS011;39910;47.154;27.614;2023-02-20T07:14:16;10.43;;;9.95;;
34737;SDS011;39910;47.154;27.614;2023-02-20T07:16:41;10.20;;;9.80;;
34737;SDS011;39910;47.154;27.614;2023-02-20T07:19:06;10.02;;;9.63;;
34737;SDS011;39910;47.154;27.614;2023-02-20T07:21:32;10.73;;;10.23;;
34737;SDS011;39910;47.154;27.614;2023-02-20T07:23:57;10.70;;;10.20;;
34737;SDS011;39910;47.154;27.614;2023-02-20T07:26:23;10.50;;;10.00;;
34737;SDS011;39910;47.154;27.614;2023-02-20T07:28:49;10.55;;;10.05;;
34737;SDS011;39910;47.154;27.614;2023-02-20T07:31:15;11.70;;;11.20;;
34737;SDS011;39910;47.154;27.614;2023-02-20T07:33:40;11.07;;;10.57;;
34737;SDS011;39910;47.154;27.614;2023-02-20T07:36:08;11.38;;;10.88;;
34737;SDS011;39910;47.154;27.614;2023-02-20T07:38:33;11.02;;;10.52;;
34737;SDS011;39910;47.154;27.614;2023-02-20T07:40:58;11.20;;;10.70;;
34737;SDS011;39910;47.154;27.614;2023-02-20T07:43:23;10.88;;;10.38;;
34737;SDS011;39910;47.154;27.614;2023-02-20T07:45:49;11.07;;;10.57;;
34737;SDS011;39910;47.154;27.614;2023-02-20T07:48:14;10.68;;;10.18;;
34737;SDS011;39910;47.154;27.614;2023-02-20T07:50:39;10.70;;;10.20;;
34737;SDS011;39910;47.154;27.614;2023-02-20T07:53:05;10.07;;;9.65;;
34737;SDS011;39910;47.154;27.614;2023-02-20T07:55:30;10.73;;;10.23;;
34737;SDS011;39910;47.154;27.614;2023-02-20T07:57:55;10.60;;;10.10;;
34737;SDS011;39910;47.154;27.614;2023-02-20T08:00:23;10.88;;;10.38;;
34737;SDS011;39910;47.154;27.614;2023-02-20T08:02:49;10.90;;;10.40;;
34737;SDS011;39910;47.154;27.614;2023-02-20T08:05:16;10.55;;;10.05;;
34737;SDS011;39910;47.154;27.614;2023-02-20T08:07:45;10.38;;;9.88;;
34737;SDS011;39910;47.154;27.614;2023-02-20T08:10:11;10.70;;;10.20;;
34737;SDS011;39910;47.154;27.614;2023-02-20T08:12:36;11.93;;;11.43;;
34737;SDS011;39910;47.154;27.614;2023-02-20T08:15:02;10.95;;;10.45;;
34737;SDS011;39910;47.154;27.614;2023-02-20T08:17:27;10.35;;;9.85;;
34737;SDS011;39910;47.154;27.614;2023-02-20T08:19:55;10.40;;;9.90;;
34737;SDS011;39910;47.154;27.614;2023-02-20T08:22:20;10.40;;;9.90;;
34737;SDS011;39910;47.154;27.614;2023-02-20T08:24:46;10.80;;;10.30;;
34737;SDS011;39910;47.154;27.614;2023-02-20T08:27:11;10.68;;;10.18;;
34737;SDS011;39910;47.154;27.614;2023-02-20T08:29:36;11.20;;;10.70;;
34737;SDS011;39910;47.154;27.614;2023-02-20T08:32:02;10.88;;;10.38;;
34737;SDS011;39910;47.154;27.614;2023-02-20T08:34:27;11.70;;;11.18;;
34737;SDS011;39910;47.154;27.614;2023-02-20T08:36:52;11.45;;;10.95;;
34737;SDS011;39910;47.154;27.614;2023-02-20T08:39:17;11.10;;;10.60;;
34737;SDS011;39910;47.154;27.614;2023-02-20T08:41:43;11.73;;;11.13;;
34737;SDS011;39910;47.154;27.614;2023-02-20T08:44:09;10.50;;;10.00;;
34737;SDS011;39910;47.154;27.614;2023-02-20T08:46:34;12.02;;;11.43;;
34737;SDS011;39910;47.154;27.614;2023-02-20T08:48:59;11.93;;;11.32;;
34737;SDS011;39910;47.154;27.614;2023-02-20T08:51:25;10.70;;;10.20;;
34737;SDS011;39910;47.154;27.614;2023-02-20T08:53:51;11.00;;;10.50;;
34737;SDS011;39910;47.154;27.614;2023-02-20T08:56:20;10.68;;;10.18;;
34737;SDS011;39910;47.154;27.614;2023-02-20T08:58:45;10.70;;;10.20;;
34737;SDS011;39910;47.154;27.614;2023-02-20T09:01:10;10.55;;;10.05;;
34737;SDS011;39910;47.154;27.614;2023-02-20T09:03:36;10.80;;;10.30;;
34737;SDS011;39910;47.154;27.614;2023-02-20T09:06:04;11.43;;;10.82;;
34737;SDS011;39910;47.154;27.614;2023-02-20T09:08:29;12.02;;;11.40;;
34737;SDS011;39910;47.154;27.614;2023-02-20T09:10:55;11.40;;;10.80;;
34737;SDS011;39910;47.154;27.614;2023-02-20T09:13:20;12.00;;;11.32;;
34737;SDS011;39910;47.154;27.614;2023-02-20T09:15:45;11.65;;;11.05;;
34737;SDS011;39910;47.154;27.614;2023-02-20T09:18:11;10.80;;;10.27;;
34737;SDS011;39910;47.154;27.614;2023-02-20T09:20:37;11.57;;;10.98;;
34737;SDS011;39910;47.154;27.614;2023-02-20T09:23:02;11.18;;;10.57;;
34737;SDS011;39910;47.154;27.614;2023-02-20T09:25:28;12.30;;;11.60;;
34737;SDS011;39910;47.154;27.614;2023-02-20T09:27:53;11.32;;;10.73;;
34737;SDS011;39910;47.154;27.614;2023-02-20T09:30:18;10.20;;;9.70;;
34737;SDS011;39910;47.154;27.614;2023-02-20T09:32:45;12.07;;;11.38;;
34737;SDS011;39910;47.154;27.614;2023-02-20T09:35:15;11.50;;;10.90;;
34737;SDS011;39910;47.154;27.614;2023-02-20T09:37:41;11.48;;;10.88;;
34737;SDS011;39910;47.154;27.614;2023-02-20T09:40:08;10.75;;;10.23;;
34737;SDS011;39910;47.154;27.614;2023-02-20T09:42:39;10.30;;;9.80;;
34737;SDS011;39910;47.154;27.614;2023-02-20T09:45:21;11.25;;;10.65;;
34737;SDS011;39910;47.154;27.614;2023-02-20T09:52:55;11.93;;;11.25;;
34737;SDS011;39910;47.154;27.614;2023-02-20T09:55:22;11.65;;;11.05;;
34737;SDS011;39910;47.154;27.614;2023-02-20T09:57:48;11.63;;;11.02;;
34737;SDS011;39910;47.154;27.614;2023-02-20T10:00:20;11.00;;;10.40;;
34737;SDS011;39910;47.154;27.614;2023-02-20T10:02:54;11.57;;;10.95;;
34737;SDS011;39910;47.154;27.614;2023-02-20T10:05:25;11.82;;;11.13;;
34737;SDS011;39910;47.154;27.614;2023-02-20T10:07:52;10.73;;;10.13;;
34737;SDS011;39910;47.154;27.614;2023-02-20T10:10:22;10.88;;;10.27;;
34737;SDS011;39910;47.154;27.614;2023-02-20T10:15:49;10.90;;;10.30;;
34737;SDS011;39910;47.154;27.614;2023-02-20T10:23:45;12.03;;;11.33;;
34737;SDS011;39910;47.154;27.614;2023-02-20T10:26:14;10.63;;;10.02;;
34737;SDS011;39910;47.154;27.614;2023-02-20T10:28:42;10.45;;;9.95;;
34737;SDS011;39910;47.154;27.614;2023-02-20T10:33:56;10.25;;;9.75;;
34737;SDS011;39910;47.154;27.614;2023-02-20T10:36:39;10.15;;;9.65;;
34737;SDS011;39910;47.154;27.614;2023-02-20T10:41:32;11.13;;;10.52;;
34737;SDS011;39910;47.154;27.614;2023-02-20T10:44:14;10.95;;;10.35;;
34737;SDS011;39910;47.154;27.614;2023-02-20T10:49:08;11.93;;;11.23;;
34737;SDS011;39910;47.154;27.614;2023-02-20T10:51:40;11.90;;;11.20;;
34737;SDS011;39910;47.154;27.614;2023-02-20T10:54:07;10.10;;;9.60;;
34737;SDS011;39910;47.154;27.614;2023-02-20T11:01:41;12.10;;;11.40;;
34737;SDS011;39910;47.154;27.614;2023-02-20T11:04:14;10.93;;;10.32;;
34737;SDS011;39910;47.154;27.614;2023-02-20T11:06:43;10.45;;;9.93;;
34737;SDS011;39910;47.154;27.614;2023-02-20T11:09:09;10.75;;;10.15;;
34737;SDS011;39910;47.154;27.614;2023-02-20T11:11:42;11.68;;;11.00;;
34737;SDS011;39910;47.154;27.614;2023-02-20T11:16:36;10.93;;;10.32;;
34737;SDS011;39910;47.154;27.614;2023-02-20T11:19:14;11.38;;;10.77;;
34737;SDS011;39910;47.154;27.614;2023-02-20T11:21:45;10.32;;;9.82;;
34737;SDS011;39910;47.154;27.614;2023-02-20T11:24:59;10.65;;;10.05;;
34737;SDS011;39910;47.154;27.614;2023-02-20T11:26:57;12.25;;;11.55;;
34737;SDS011;39910;47.154;27.614;2023-02-20T11:29:24;12.43;;;11.73;;
34737;SDS011;39910;47.154;27.614;2023-02-20T11:31:51;12.38;;;11.68;;
34737;SDS011;39910;47.154;27.614;2023-02-20T11:34:20;10.63;;;10.02;;
34737;SDS011;39910;47.154;27.614;2023-02-20T11:36:52;10.98;;;10.38;;
34737;SDS011;39910;47.154;27.614;2023-02-20T11:41:47;11.60;;;10.98;;
34737;SDS011;39910;47.154;27.614;2023-02-20T11:44:21;12.95;;;12.15;;
34737;SDS011;39910;47.154;27.614;2023-02-20T11:46:47;12.07;;;11.38;;
34737;SDS011;39910;47.154;27.614;2023-02-20T11:52:07;11.57;;;10.88;;
34737;SDS011;39910;47.154;27.614;2023-02-20T11:54:32;10.30;;;9.80;;
34737;SDS011;39910;47.154;27.614;2023-02-20T11:59:36;10.18;;;9.68;;
34737;SDS011;39910;47.154;27.614;2023-02-20T12:04:39;10.20;;;9.70;;
34737;SDS011;39910;47.154;27.614;2023-02-20T12:09:43;10.60;;;10.05;;
34737;SDS011;39910;47.154;27.614;2023-02-20T12:12:10;9.65;;;9.15;;
34737;SDS011;39910;47.154;27.614;2023-02-20T12:14:38;10.00;;;9.50;;
34737;SDS011;39910;47.154;27.614;2023-02-20T12:19:35;11.05;;;10.45;;
34737;SDS011;39910;47.154;27.614;2023-02-20T12:24:43;10.23;;;9.73;;
34737;SDS011;39910;47.154;27.614;2023-02-20T12:42:40;10.90;;;10.30;;
34737;SDS011;39910;47.154;27.614;2023-02-20T12:45:13;10.45;;;9.95;;
34737;SDS011;39910;47.154;27.614;2023-02-20T12:47:40;9.52;;;9.07;;
34737;SDS011;39910;47.154;27.614;2023-02-20T13:00:02;11.30;;;10.68;;
34737;SDS011;39910;47.154;27.614;2023-02-20T13:02:50;11.40;;;10.80;;
34737;SDS011;39910;47.154;27.614;2023-02-20T13:05:21;11.40;;;10.80;;
34737;SDS011;39910;47.154;27.614;2023-02-20T13:07:56;11.45;;;10.85;;
34737;SDS011;39910;47.154;27.614;2023-02-20T13:10:32;10.85;;;10.27;;
34737;SDS011;39910;47.154;27.614;2023-02-20T13:12:58;10.40;;;9.90;;
34737;SDS011;39910;47.154;27.614;2023-02-20T13:20:19;11.27;;;10.68;;
34737;SDS011;39910;47.154;27.614;2023-02-20T13:23:02;11.15;;;10.55;;
34737;SDS011;39910;47.154;27.614;2023-02-20T13:33:33;11.88;;;11.18;;
34737;SDS011;39910;47.154;27.614;2023-02-20T13:36:00;10.77;;;10.20;;
34737;SDS011;39910;47.154;27.614;2023-02-20T13:38:26;11.18;;;10.57;;
34737;SDS011;39910;47.154;27.614;2023-02-20T13:53:49;10.48;;;9.95;;
34737;SDS011;39910;47.154;27.614;2023-02-20T13:56:15;10.85;;;10.25;;
34737;SDS011;39910;47.154;27.614;2023-02-20T13:58:41;11.38;;;10.77;;
34737;SDS011;39910;47.154;27.614;2023-02-20T14:01:06;12.57;;;11.85;;
34737;SDS011;39910;47.154;27.614;2023-02-20T14:03:33;10.82;;;10.23;;
34737;SDS011;39910;47.154;27.614;2023-02-20T14:08:29;11.02;;;10.43;;
34737;SDS011;39910;47.154;27.614;2023-02-20T14:10:54;11.13;;;10.52;;
34737;SDS011;39910;47.154;27.614;2023-02-20T14:13:20;11.48;;;10.85;;
34737;SDS011;39910;47.154;27.614;2023-02-20T14:18:15;11.60;;;11.00;;
34737;SDS011;39910;47.154;27.614;2023-02-20T14:20:41;11.02;;;10.43;;
34737;SDS011;39910;47.154;27.614;2023-02-20T14:23:16;12.23;;;11.52;;
34737;SDS011;39910;47.154;27.614;2023-02-20T14:25:51;11.23;;;10.63;;
34737;SDS011;39910;47.154;27.614;2023-02-20T14:28:16;11.27;;;10.67;;
34737;SDS011;39910;47.154;27.614;2023-02-20T14:30:42;11.23;;;10.63;;
34737;SDS011;39910;47.154;27.614;2023-02-20T14:33:09;11.90;;;11.25;;
34737;SDS011;39910;47.154;27.614;2023-02-20T14:35:52;10.82;;;10.25;;
34737;SDS011;39910;47.154;27.614;2023-02-20T14:40:46;11.50;;;10.90;;
34737;SDS011;39910;47.154;27.614;2023-02-20T14:43:14;11.90;;;11.23;;
34737;SDS011;39910;47.154;27.614;2023-02-20T14:45:41;11.68;;;11.02;;
34737;SDS011;39910;47.154;27.614;2023-02-20T14:48:16;10.45;;;9.95;;
34737;SDS011;39910;47.154;27.614;2023-02-20T14:50:44;12.02;;;11.32;;
34737;SDS011;39910;47.154;27.614;2023-02-20T14:55:35;12.18;;;11.48;;
34737;SDS011;39910;47.154;27.614;2023-02-20T14:58:04;11.05;;;10.45;;
34737;SDS011;39910;47.154;27.614;2023-02-20T15:00:32;11.35;;;10.75;;
34737;SDS011;39910;47.154;27.614;2023-02-20T15:02:57;10.88;;;10.27;;
34737;SDS011;39910;47.154;27.614;2023-02-20T15:05:27;11.25;;;10.65;;
34737;SDS011;39910;47.154;27.614;2023-02-20T15:07:59;11.15;;;10.55;;
34737;SDS011;39910;47.154;27.614;2023-02-20T15:12:54;12.02;;;11.32;;
34737;SDS011;39910;47.154;27.614;2023-02-20T15:15:21;12.13;;;11.43;;
34737;SDS011;39910;47.154;27.614;2023-02-20T15:17:47;12.05;;;11.35;;
34737;SDS011;39910;47.154;27.614;2023-02-20T15:20:19;10.70;;;10.10;;
34737;SDS011;39910;47.154;27.614;2023-02-20T15:22:44;10.32;;;9.82;;
34737;SDS011;39910;47.154;27.614;2023-02-20T15:25:31;11.23;;;10.63;;
34737;SDS011;39910;47.154;27.614;2023-02-20T15:31:27;11.43;;;10.82;;
34737;SDS011;39910;47.154;27.614;2023-02-20T15:33:28;11.20;;;10.60;;
34737;SDS011;39910;47.154;27.614;2023-02-20T15:35:53;11.38;;;10.77;;
34737;SDS011;39910;47.154;27.614;2023-02-20T15:38:19;11.50;;;10.85;;
34737;SDS011;39910;47.154;27.614;2023-02-20T15:40:44;10.88;;;10.27;;
34737;SDS011;39910;47.154;27.614;2023-02-20T15:43:13;11.13;;;10.52;;
34737;SDS011;39910;47.154;27.614;2023-02-20T15:45:38;10.57;;;9.98;;
34737;SDS011;39910;47.154;27.614;2023-02-20T15:48:04;10.73;;;10.13;;
34737;SDS011;39910;47.154;27.614;2023-02-20T15:50:30;12.00;;;11.30;;
34737;SDS011;39910;47.154;27.614;2023-02-20T15:52:55;10.68;;;10.07;;
34737;SDS011;39910;47.154;27.614;2023-02-20T15:55:22;10.10;;;9.57;;
34737;SDS011;39910;47.154;27.614;2023-02-20T15:57:48;11.60;;;10.90;;
34737;SDS011;39910;47.154;27.614;2023-02-20T16:00:19;11.63;;;10.93;;
34737;SDS011;39910;47.154;27.614;2023-02-20T16:02:45;12.23;;;11.50;;
34737;SDS011;39910;47.154;27.614;2023-02-20T16:05:11;11.90;;;11.20;;
34737;SDS011;39910;47.154;27.614;2023-02-20T16:07:37;10.65;;;10.05;;
34737;SDS011;39910;47.154;27.614;2023-02-20T16:10:02;11.30;;;10.68;;
34737;SDS011;39910;47.154;27.614;2023-02-20T16:12:28;11.00;;;10.40;;
34737;SDS011;39910;47.154;27.614;2023-02-20T16:14:57;10.85;;;10.25;;
34737;SDS011;39910;47.154;27.614;2023-02-20T16:17:23;10.85;;;10.25;;
34737;SDS011;39910;47.154;27.614;2023-02-20T16:19:49;10.88;;;10.27;;
34737;SDS011;39910;47.154;27.614;2023-02-20T16:22:15;10.75;;;10.15;;
34737;SDS011;39910;47.154;27.614;2023-02-20T16:24:40;12.75;;;11.95;;
34737;SDS011;39910;47.154;27.614;2023-02-20T16:27:29;10.10;;;9.60;;
34737;SDS011;39910;47.154;27.614;2023-02-20T16:29:54;10.90;;;10.30;;
34737;SDS011;39910;47.154;27.614;2023-02-20T16:32:24;11.90;;;11.20;;
34737;SDS011;39910;47.154;27.614;2023-02-20T16:34:50;10.88;;;10.27;;
34737;SDS011;39910;47.154;27.614;2023-02-20T16:37:15;11.07;;;10.48;;
34737;SDS011;39910;47.154;27.614;2023-02-20T16:39:41;10.57;;;9.98;;
34737;SDS011;39910;47.154;27.614;2023-02-20T16:42:17;10.82;;;10.23;;
34737;SDS011;39910;47.154;27.614;2023-02-20T16:44:43;11.43;;;10.75;;
34737;SDS011;39910;47.154;27.614;2023-02-20T16:47:10;10.43;;;9.82;;